sensor_id;sensor_type;location;lat;lon;timestamp;pressure;altitude;pressure_sealevel;temperature;humidity
66430;BME280;53242;51.694;10.006;2023-03-26T00:01:03;98556.94;;;7.82;84.81
66430;BME280;53242;51.694;10.006;2023-03-26T00:03:26;98564.81;;;7.76;85.05
66430;BME280;53242;51.694;10.006;2023-03-26T00:06:06;98561.13;;;7.70;84.74
66430;BME280;53242;51.694;10.006;2023-03-26T00:08:29;98561.56;;;7.67;84.35
66430;BME280;53242;51.694;10.006;2023-03-26T00:10:52;98557.50;;;7.71;84.68
66430;BME280;53242;51.694;10.006;2023-03-26T00:13:14;98559.97;;;7.86;84.59
66430;BME280;53242;51.694;10.006;2023-03-26T00:15:37;98557.09;;;7.74;84.24
66430;BME280;53242;51.694;10.006;2023-03-26T00:18:02;98561.13;;;7.70;84.51
66430;BME280;53242;51.694;10.006;2023-03-26T00:20:26;98556.72;;;7.70;84.77
66430;BME280;53242;51.694;10.006;2023-03-26T00:22:48;98560.94;;;7.65;84.97
66430;BME280;53242;51.694;10.006;2023-03-26T00:25:12;98560.75;;;7.73;84.08
66430;BME280;53242;51.694;10.006;2023-03-26T00:27:35;98566.19;;;7.65;84.99
66430;BME280;53242;51.694;10.006;2023-03-26T00:29:59;98560.34;;;7.69;84.64
66430;BME280;53242;51.694;10.006;2023-03-26T00:32:22;98564.97;;;7.67;84.74
66430;BME280;53242;51.694;10.006;2023-03-26T00:34:49;98554.66;;;7.59;85.17
66430;BME280;53242;51.694;10.006;2023-03-26T00:37:13;98562.13;;;7.62;84.71
66430;BME280;53242;51.694;10.006;2023-03-26T00:39:36;98561.78;;;7.79;83.87
66430;BME280;53242;51.694;10.006;2023-03-26T00:42:00;98558.13;;;7.73;83.86
66430;BME280;53242;51.694;10.006;2023-03-26T00:44:28;98565.16;;;7.59;84.55
66430;BME280;53242;51.694;10.006;2023-03-26T00:46:50;98563.53;;;7.51;85.56
66430;BME280;53242;51.694;10.006;2023-03-26T00:49:13;98565.75;;;7.61;85.12
66430;BME280;53242;51.694;10.006;2023-03-26T00:51:36;98568.44;;;7.68;85.15
66430;BME280;53242;51.694;10.006;2023-03-26T00:54:00;98565.38;;;7.57;85.34
66430;BME280;53242;51.694;10.006;2023-03-26T00:56:22;98569.63;;;7.65;84.94
66430;BME280;53242;51.694;10.006;2023-03-26T00:58:45;98566.38;;;7.56;85.67
66430;BME280;53242;51.694;10.006;2023-03-26T01:01:12;98576.25;;;7.61;85.27
66430;BME280;53242;51.694;10.006;2023-03-26T01:03:36;98571.41;;;7.51;85.75
66430;BME280;53242;51.694;10.006;2023-03-26T01:06:07;98572.41;;;7.50;86.09
66430;BME280;53242;51.694;10.006;2023-03-26T01:08:43;98579.72;;;7.62;86.07
66430;BME280;53242;51.694;10.006;2023-03-26T01:11:30;98573.47;;;7.69;85.64
66430;BME280;53242;51.694;10.006;2023-03-26T01:13:56;98578.28;;;7.59;86.46
66430;BME280;53242;51.694;10.006;2023-03-26T01:16:30;98577.22;;;7.47;87.62
66430;BME280;53242;51.694;10.006;2023-03-26T01:18:55;98562.69;;;7.44;88.17
66430;BME280;53242;51.694;10.006;2023-03-26T01:21:23;98570.00;;;7.55;87.09
66430;BME280;53242;51.694;10.006;2023-03-26T01:26:45;98578.28;;;7.59;86.76
66430;BME280;53242;51.694;10.006;2023-03-26T01:29:26;98575.47;;;7.61;87.41
66430;BME280;53242;51.694;10.006;2023-03-26T01:39:47;98568.38;;;7.54;86.50
66430;BME280;53242;51.694;10.006;2023-03-26T01:42:20;98580.09;;;7.58;86.17
66430;BME280;53242;51.694;10.006;2023-03-26T01:44:54;98575.66;;;7.59;85.86
66430;BME280;53242;51.694;10.006;2023-03-26T01:47:20;98575.66;;;7.52;85.80
66430;BME280;53242;51.694;10.006;2023-03-26T01:49:42;98568.34;;;7.48;85.86
66430;BME280;53242;51.694;10.006;2023-03-26T01:52:15;98571.41;;;7.51;85.90
66430;BME280;53242;51.694;10.006;2023-03-26T01:54:38;98568.56;;;7.46;85.72
66430;BME280;53242;51.694;10.006;2023-03-26T01:57:09;98575.66;;;7.59;85.13
66430;BME280;53242;51.694;10.006;2023-03-26T02:02:16;98580.47;;;7.42;85.20
66430;BME280;53242;51.694;10.006;2023-03-26T02:04:45;98565.53;;;7.49;85.29
66430;BME280;53242;51.694;10.006;2023-03-26T02:09:46;98574.06;;;7.71;85.09
66430;BME280;53242;51.694;10.006;2023-03-26T02:12:13;98567.25;;;7.84;85.06
66430;BME280;53242;51.694;10.006;2023-03-26T02:14:35;98567.81;;;7.79;85.45
66430;BME280;53242;51.694;10.006;2023-03-26T02:16:58;98564.38;;;7.65;86.33
66430;BME280;53242;51.694;10.006;2023-03-26T02:19:21;98558.16;;;7.80;86.29
66430;BME280;53242;51.694;10.006;2023-03-26T02:21:46;98559.50;;;7.69;86.64
66430;BME280;53242;51.694;10.006;2023-03-26T02:24:12;98556.09;;;7.62;86.83
66430;BME280;53242;51.694;10.006;2023-03-26T02:26:35;98555.50;;;7.73;86.78
66430;BME280;53242;51.694;10.006;2023-03-26T02:29:04;98550.63;;;7.70;86.96
66430;BME280;53242;51.694;10.006;2023-03-26T02:31:28;98550.03;;;7.68;86.63
66430;BME280;53242;51.694;10.006;2023-03-26T02:33:54;98541.34;;;7.67;86.91
66430;BME280;53242;51.694;10.006;2023-03-26T02:36:18;98547.41;;;7.74;86.11
66430;BME280;53242;51.694;10.006;2023-03-26T02:38:45;98549.00;;;7.69;86.46
66430;BME280;53242;51.694;10.006;2023-03-26T02:41:09;98542.16;;;7.68;87.07
66430;BME280;53242;51.694;10.006;2023-03-26T02:43:46;98550.06;;;7.74;86.04
66430;BME280;53242;51.694;10.006;2023-03-26T02:46:11;98545.59;;;7.68;86.56
66430;BME280;53242;51.694;10.006;2023-03-26T02:48:52;98542.53;;;7.51;86.71
66430;BME280;53242;51.694;10.006;2023-03-26T02:51:20;98538.13;;;7.65;86.00
66430;BME280;53242;51.694;10.006;2023-03-26T02:54:03;98539.28;;;7.56;86.37
66430;BME280;53242;51.694;10.006;2023-03-26T02:56:43;98536.88;;;7.61;86.80
66430;BME280;53242;51.694;10.006;2023-03-26T02:59:18;98531.63;;;7.54;87.25
66430;BME280;53242;51.694;10.006;2023-03-26T03:01:45;98531.63;;;7.54;86.42
66430;BME280;53242;51.694;10.006;2023-03-26T03:04:10;98527.56;;;7.52;86.86
66430;BME280;53242;51.694;10.006;2023-03-26T03:06:33;98529.19;;;7.60;86.53
66430;BME280;53242;51.694;10.006;2023-03-26T03:08:55;98528.00;;;7.62;86.94
66430;BME280;53242;51.694;10.006;2023-03-26T03:11:33;98522.94;;;7.54;87.56
66430;BME280;53242;51.694;10.006;2023-03-26T03:13:56;98530.41;;;7.50;88.07
66430;BME280;53242;51.694;10.006;2023-03-26T03:16:21;98523.94;;;7.53;88.21
66430;BME280;53242;51.694;10.006;2023-03-26T03:18:43;98520.53;;;7.52;87.30
66430;BME280;53242;51.694;10.006;2023-03-26T03:21:07;98522.31;;;7.58;87.39
66430;BME280;53242;51.694;10.006;2023-03-26T03:23:30;98517.06;;;7.58;87.05
66430;BME280;53242;51.694;10.006;2023-03-26T03:26:03;98525.56;;;7.61;87.21
66430;BME280;53242;51.694;10.006;2023-03-26T03:28:27;98518.91;;;7.71;86.71
66430;BME280;53242;51.694;10.006;2023-03-26T03:30:49;98521.53;;;7.65;87.10
66430;BME280;53242;51.694;10.006;2023-03-26T03:33:22;98519.53;;;7.67;86.97
66430;BME280;53242;51.694;10.006;2023-03-26T03:35:46;98522.94;;;7.67;87.17
66430;BME280;53242;51.694;10.006;2023-03-26T03:38:10;98513.88;;;7.70;86.89
66430;BME280;53242;51.694;10.006;2023-03-26T03:40:41;98519.91;;;7.64;87.74
66430;BME280;53242;51.694;10.006;2023-03-26T03:43:03;98509.03;;;7.67;86.90
66430;BME280;53242;51.694;10.006;2023-03-26T03:45:35;98513.88;;;7.70;87.19
66430;BME280;53242;51.694;10.006;2023-03-26T03:48:02;98514.28;;;7.67;87.32
66430;BME280;53242;51.694;10.006;2023-03-26T03:50:32;98512.22;;;7.55;87.34
66430;BME280;53242;51.694;10.006;2023-03-26T03:53:16;98516.28;;;7.71;86.29
66430;BME280;53242;51.694;10.006;2023-03-26T03:55:43;98512.28;;;7.76;86.60
66430;BME280;53242;51.694;10.006;2023-03-26T03:58:14;98512.28;;;7.82;86.49
66430;BME280;53242;51.694;10.006;2023-03-26T04:00:43;98512.44;;;7.74;86.96
66430;BME280;53242;51.694;10.006;2023-03-26T04:03:26;98514.69;;;7.77;86.75
66430;BME280;53242;51.694;10.006;2023-03-26T04:05:52;98510.25;;;7.84;86.29
66430;BME280;53242;51.694;10.006;2023-03-26T04:08:17;98501.56;;;7.77;86.47
66430;BME280;53242;51.694;10.006;2023-03-26T04:10:43;98512.88;;;7.71;86.45
66430;BME280;53242;51.694;10.006;2023-03-26T04:13:13;98505.78;;;7.71;87.38
66430;BME280;53242;51.694;10.006;2023-03-26T04:15:48;98511.03;;;7.65;87.87
66430;BME280;53242;51.694;10.006;2023-03-26T04:18:10;98510.66;;;7.68;87.40
66430;BME280;53242;51.694;10.006;2023-03-26T04:20:33;98512.88;;;7.78;86.85
66430;BME280;53242;51.694;10.006;2023-03-26T04:22:57;98519.75;;;7.79;86.74
66430;BME280;53242;51.694;10.006;2023-03-26T04:25:22;98515.06;;;7.74;86.67
66430;BME280;53242;51.694;10.006;2023-03-26T04:28:05;98503.38;;;7.77;86.46
66430;BME280;53242;51.694;10.006;2023-03-26T04:30:48;98495.91;;;7.80;86.31
66430;BME280;53242;51.694;10.006;2023-03-26T04:33:27;98506.19;;;7.82;86.30
66430;BME280;53242;51.694;10.006;2023-03-26T04:35:50;98505.44;;;7.95;85.50
66430;BME280;53242;51.694;10.006;2023-03-26T04:38:14;98499.72;;;7.84;85.61
66430;BME280;53242;51.694;10.006;2023-03-26T04:40:43;98502.97;;;7.73;85.88
66430;BME280;53242;51.694;10.006;2023-03-26T04:43:25;98498.91;;;7.64;86.92
66430;BME280;53242;51.694;10.006;2023-03-26T04:46:21;98492.84;;;7.50;88.25
66430;BME280;53242;51.694;10.006;2023-03-26T04:48:53;98499.94;;;7.63;87.80
66430;BME280;53242;51.694;10.006;2023-03-26T04:51:16;98496.09;;;7.65;88.02
66430;BME280;53242;51.694;10.006;2023-03-26T04:53:41;98497.91;;;7.71;87.61
66430;BME280;53242;51.694;10.006;2023-03-26T04:59:28;98491.66;;;7.66;86.91
66430;BME280;53242;51.694;10.006;2023-03-26T05:01:56;98482.19;;;7.78;86.61
66430;BME280;53242;51.694;10.006;2023-03-26T05:04:20;98490.06;;;7.78;86.46
66430;BME280;53242;51.694;10.006;2023-03-26T05:06:43;98490.66;;;7.73;86.82
66430;BME280;53242;51.694;10.006;2023-03-26T05:09:15;98485.59;;;7.85;86.38
66430;BME280;53242;51.694;10.006;2023-03-26T05:11:58;98478.13;;;7.82;86.40
66430;BME280;53242;51.694;10.006;2023-03-26T05:14:20;98484.38;;;7.74;86.63
66430;BME280;53242;51.694;10.006;2023-03-26T05:16:47;98476.50;;;7.81;86.29
66430;BME280;53242;51.694;10.006;2023-03-26T05:19:10;98471.63;;;7.45;86.86
66430;BME280;53242;51.694;10.006;2023-03-26T05:21:32;98470.00;;;7.64;86.37
66430;BME280;53242;51.694;10.006;2023-03-26T05:23:55;98465.78;;;7.69;85.93
66430;BME280;53242;51.694;10.006;2023-03-26T05:26:18;98454.09;;;7.65;85.69
66430;BME280;53242;51.694;10.006;2023-03-26T05:28:41;98456.72;;;7.65;85.41
66430;BME280;53242;51.694;10.006;2023-03-26T05:31:18;98445.38;;;7.65;85.25
66430;BME280;53242;51.694;10.006;2023-03-26T05:33:43;98448.84;;;7.65;85.35
66430;BME280;53242;51.694;10.006;2023-03-26T05:36:10;98448.22;;;7.70;85.43
66430;BME280;53242;51.694;10.006;2023-03-26T05:38:41;98446.19;;;7.58;85.51
66430;BME280;53242;51.694;10.006;2023-03-26T05:41:08;98440.53;;;7.62;85.62
66430;BME280;53242;51.694;10.006;2023-03-26T05:43:32;98435.25;;;7.48;85.46
66430;BME280;53242;51.694;10.006;2023-03-26T05:46:04;98442.75;;;7.65;84.93
66430;BME280;53242;51.694;10.006;2023-03-26T05:48:27;98438.91;;;7.61;84.89
66430;BME280;53242;51.694;10.006;2023-03-26T05:50:52;98436.28;;;7.61;84.85
66430;BME280;53242;51.694;10.006;2023-03-26T05:53:15;98436.09;;;7.55;85.29
66430;BME280;53242;51.694;10.006;2023-03-26T05:55:57;98426.41;;;7.69;84.84
66430;BME280;53242;51.694;10.006;2023-03-26T05:58:46;98420.16;;;7.70;84.52
66430;BME280;53242;51.694;10.006;2023-03-26T06:01:27;98416.09;;;7.74;84.37
66430;BME280;53242;51.694;10.006;2023-03-26T06:04:26;98417.09;;;7.94;83.77
66430;BME280;53242;51.694;10.006;2023-03-26T06:07:15;98419.72;;;7.87;83.65
66430;BME280;53242;51.694;10.006;2023-03-26T06:09:43;98419.72;;;7.80;83.87
66430;BME280;53242;51.694;10.006;2023-03-26T06:12:06;98410.03;;;7.87;83.94
66430;BME280;53242;51.694;10.006;2023-03-26T06:14:29;98409.00;;;7.82;83.96
66430;BME280;53242;51.694;10.006;2023-03-26T06:17:20;98411.25;;;7.85;84.09
66430;BME280;53242;51.694;10.006;2023-03-26T06:19:59;98402.13;;;8.01;83.54
66430;BME280;53242;51.694;10.006;2023-03-26T06:22:32;98398.28;;;8.17;83.10
66430;BME280;53242;51.694;10.006;2023-03-26T06:25:14;98403.34;;;8.12;83.47
66430;BME280;53242;51.694;10.006;2023-03-26T06:27:50;98401.06;;;8.29;82.98
66430;BME280;53242;51.694;10.006;2023-03-26T06:30:39;98392.78;;;8.25;83.25
66430;BME280;53242;51.694;10.006;2023-03-26T06:33:36;98392.59;;;8.20;83.31
66430;BME280;53242;51.694;10.006;2023-03-26T06:35:59;98387.72;;;8.30;83.10
66430;BME280;53242;51.694;10.006;2023-03-26T06:38:22;98397.81;;;8.40;82.60
66430;BME280;53242;51.694;10.006;2023-03-26T06:40:44;98392.72;;;8.52;82.73
66430;BME280;53242;51.694;10.006;2023-03-26T06:43:22;98391.53;;;8.48;82.90
66430;BME280;53242;51.694;10.006;2023-03-26T06:46:09;98394.94;;;8.62;82.59
66430;BME280;53242;51.694;10.006;2023-03-26T06:48:50;98398.97;;;8.58;83.00
66430;BME280;53242;51.694;10.006;2023-03-26T06:51:33;98401.97;;;8.68;82.63
66430;BME280;53242;51.694;10.006;2023-03-26T06:54:14;98398.97;;;8.58;82.79
66430;BME280;53242;51.694;10.006;2023-03-26T06:56:48;98396.16;;;8.59;82.85
66430;BME280;53242;51.694;10.006;2023-03-26T06:59:45;98392.88;;;8.64;83.07
66430;BME280;53242;51.694;10.006;2023-03-26T07:02:26;98396.16;;;8.52;83.14
66430;BME280;53242;51.694;10.006;2023-03-26T07:05:07;98395.19;;;8.47;83.56
66430;BME280;53242;51.694;10.006;2023-03-26T07:07:48;98393.75;;;8.51;83.57
66430;BME280;53242;51.694;10.006;2023-03-26T07:10:33;98389.31;;;8.51;83.60
66430;BME280;53242;51.694;10.006;2023-03-26T07:13:07;98390.25;;;8.64;83.38
66430;BME280;53242;51.694;10.006;2023-03-26T07:15:38;98394.47;;;8.71;83.23
66430;BME280;53242;51.694;10.006;2023-03-26T07:18:08;98381.09;;;8.80;82.67
66430;BME280;53242;51.694;10.006;2023-03-26T07:20:33;98377.16;;;8.96;82.40
66430;BME280;53242;51.694;10.006;2023-03-26T07:22:55;98377.59;;;8.86;82.16
66430;BME280;53242;51.694;10.006;2023-03-26T07:25:38;98376.97;;;8.91;82.08
66430;BME280;53242;51.694;10.006;2023-03-26T07:28:22;98378.38;;;8.93;82.10
66430;BME280;53242;51.694;10.006;2023-03-26T07:31:02;98365.78;;;9.02;82.19
66430;BME280;53242;51.694;10.006;2023-03-26T07:33:48;98367.91;;;8.86;82.22
66430;BME280;53242;51.694;10.006;2023-03-26T07:36:55;98372.06;;;9.01;82.10
66430;BME280;53242;51.694;10.006;2023-03-26T07:39:51;98368.31;;;9.15;81.23
66430;BME280;53242;51.694;10.006;2023-03-26T07:43:02;98367.13;;;9.11;81.79
66430;BME280;53242;51.694;10.006;2023-03-26T07:45:52;98363.06;;;9.15;81.68
66430;BME280;53242;51.694;10.006;2023-03-26T07:48:23;98355.03;;;9.35;80.89
66430;BME280;53242;51.694;10.006;2023-03-26T07:50:55;98353.59;;;9.08;81.54
66430;BME280;53242;51.694;10.006;2023-03-26T07:53:24;98350.91;;;9.14;81.59
66430;BME280;53242;51.694;10.006;2023-03-26T07:56:14;98343.50;;;9.30;81.79
66430;BME280;53242;51.694;10.006;2023-03-26T08:04:48;98334.34;;;9.83;79.96
66430;BME280;53242;51.694;10.006;2023-03-26T08:10:51;98339.03;;;9.81;79.58
66430;BME280;53242;51.694;10.006;2023-03-26T08:15:54;98334.47;;;9.69;79.81
66430;BME280;53242;51.694;10.006;2023-03-26T08:18:28;98334.81;;;9.54;80.53
66430;BME280;53242;51.694;10.006;2023-03-26T08:21:03;98337.59;;;9.60;79.44
66430;BME280;53242;51.694;10.006;2023-03-26T08:23:41;98333.28;;;9.65;80.00
66430;BME280;53242;51.694;10.006;2023-03-26T08:29:09;98333.09;;;10.04;78.32
66430;BME280;53242;51.694;10.006;2023-03-26T08:31:38;98333.56;;;10.01;78.93
66430;BME280;53242;51.694;10.006;2023-03-26T08:34:01;98329.97;;;10.14;78.88
66430;BME280;53242;51.694;10.006;2023-03-26T08:36:23;98327.13;;;10.15;78.10
66430;BME280;53242;51.694;10.006;2023-03-26T08:38:46;98327.69;;;9.99;77.69
66430;BME280;53242;51.694;10.006;2023-03-26T08:43:45;98324.16;;;10.24;77.33
66430;BME280;53242;51.694;10.006;2023-03-26T09:00:37;98329.47;;;10.42;77.82
66430;BME280;53242;51.694;10.006;2023-03-26T09:03:25;98329.59;;;10.47;76.25
66430;BME280;53242;51.694;10.006;2023-03-26T09:12:13;98319.84;;;10.48;75.86
66430;BME280;53242;51.694;10.006;2023-03-26T09:14:55;98307.81;;;10.52;76.23
66430;BME280;53242;51.694;10.006;2023-03-26T09:26:03;98291.06;;;10.77;73.83
66430;BME280;53242;51.694;10.006;2023-03-26T09:36:42;98283.84;;;10.96;74.48
66430;BME280;53242;51.694;10.006;2023-03-26T09:39:26;98282.28;;;11.07;73.23
66430;BME280;53242;51.694;10.006;2023-03-26T09:44:56;98274.97;;;11.21;72.24
66430;BME280;53242;51.694;10.006;2023-03-26T09:50:11;98279.09;;;11.28;72.41
66430;BME280;53242;51.694;10.006;2023-03-26T09:52:55;98283.66;;;11.09;72.13
66430;BME280;53242;51.694;10.006;2023-03-26T09:55:32;98273.78;;;11.16;72.76
66430;BME280;53242;51.694;10.006;2023-03-26T09:58:12;98266.78;;;11.70;71.30
66430;BME280;53242;51.694;10.006;2023-03-26T10:00:45;98265.75;;;11.71;71.46
66430;BME280;53242;51.694;10.006;2023-03-26T10:11:53;98253.25;;;11.66;70.59
66430;BME280;53242;51.694;10.006;2023-03-26T10:14:23;98258.47;;;12.01;69.43
66430;BME280;53242;51.694;10.006;2023-03-26T10:17:34;98254.94;;;11.84;68.28
66430;BME280;53242;51.694;10.006;2023-03-26T10:20:25;98249.06;;;11.82;70.25
66430;BME280;53242;51.694;10.006;2023-03-26T10:22:55;98249.75;;;12.01;67.33
66430;BME280;53242;51.694;10.006;2023-03-26T10:28:45;98242.50;;;11.96;67.18
66430;BME280;53242;51.694;10.006;2023-03-26T10:31:25;98239.16;;;12.01;68.31
66430;BME280;53242;51.694;10.006;2023-03-26T10:36:37;98239.63;;;11.86;68.15
66430;BME280;53242;51.694;10.006;2023-03-26T10:44:32;98235.16;;;11.98;67.64
66430;BME280;53242;51.694;10.006;2023-03-26T10:47:06;98235.94;;;11.99;68.00
66430;BME280;53242;51.694;10.006;2023-03-26T10:50:18;98232.28;;;12.00;66.35
66430;BME280;53242;51.694;10.006;2023-03-26T10:52:23;98237.75;;;12.10;67.09
66430;BME280;53242;51.694;10.006;2023-03-26T10:55:08;98227.28;;;12.15;65.62
66430;BME280;53242;51.694;10.006;2023-03-26T10:57:43;98228.09;;;12.04;66.50
66430;BME280;53242;51.694;10.006;2023-03-26T11:00:24;98235.41;;;11.85;68.04
66430;BME280;53242;51.694;10.006;2023-03-26T11:03:19;98244.28;;;11.43;71.07
66430;BME280;53242;51.694;10.006;2023-03-26T11:06:12;98249.56;;;11.08;72.71
66430;BME280;53242;51.694;10.006;2023-03-26T11:21:55;98241.22;;;10.57;74.46
66430;BME280;53242;51.694;10.006;2023-03-26T11:24:39;98246.16;;;10.65;74.79
66430;BME280;53242;51.694;10.006;2023-03-26T11:29:51;98236.31;;;10.72;74.12
66430;BME280;53242;51.694;10.006;2023-03-26T11:35:03;98226.38;;;10.86;72.98
66430;BME280;53242;51.694;10.006;2023-03-26T11:37:41;98233.50;;;10.97;73.52
66430;BME280;53242;51.694;10.006;2023-03-26T11:40:54;98226.25;;;11.05;74.59
66430;BME280;53242;51.694;10.006;2023-03-26T11:42:56;98226.38;;;10.98;74.51
66430;BME280;53242;51.694;10.006;2023-03-26T11:45:23;98226.38;;;11.10;74.95
66430;BME280;53242;51.694;10.006;2023-03-26T11:47:51;98223.97;;;11.08;75.53
66430;BME280;53242;51.694;10.006;2023-03-26T11:50:19;98223.72;;;11.10;75.29
66430;BME280;53242;51.694;10.006;2023-03-26T11:52:44;98226.97;;;11.00;75.29
66430;BME280;53242;51.694;10.006;2023-03-26T11:55:10;98227.16;;;10.86;76.79
66430;BME280;53242;51.694;10.006;2023-03-26T11:57:34;98229.78;;;10.86;76.00
66430;BME280;53242;51.694;10.006;2023-03-26T12:00:05;98230.25;;;10.72;77.84
66430;BME280;53242;51.694;10.006;2023-03-26T12:02:39;98227.34;;;10.61;79.03
66430;BME280;53242;51.694;10.006;2023-03-26T12:05:12;98232.34;;;10.20;79.76
66430;BME280;53242;51.694;10.006;2023-03-26T12:07:34;98238.53;;;9.96;77.72
66430;BME280;53242;51.694;10.006;2023-03-26T12:10:02;98229.50;;;10.03;78.18
66430;BME280;53242;51.694;10.006;2023-03-26T12:12:28;98226.50;;;10.00;77.69
66430;BME280;53242;51.694;10.006;2023-03-26T12:14:50;98231.78;;;10.00;77.95
66430;BME280;53242;51.694;10.006;2023-03-26T12:17:24;98232.66;;;9.94;78.01
66430;BME280;53242;51.694;10.006;2023-03-26T12:19:48;98239.25;;;9.84;78.89
66430;BME280;53242;51.694;10.006;2023-03-26T12:25:14;98232.28;;;9.53;79.73
66430;BME280;53242;51.694;10.006;2023-03-26T12:27:41;98232.28;;;9.53;80.74
66430;BME280;53242;51.694;10.006;2023-03-26T12:30:24;98230.25;;;9.36;81.19
66430;BME280;53242;51.694;10.006;2023-03-26T12:32:48;98228.25;;;9.50;80.95
66430;BME280;53242;51.694;10.006;2023-03-26T12:35:16;98233.69;;;9.55;80.85
66430;BME280;53242;51.694;10.006;2023-03-26T12:37:42;98229.31;;;9.68;80.41
66430;BME280;53242;51.694;10.006;2023-03-26T12:41:01;98227.28;;;9.70;80.31
66430;BME280;53242;51.694;10.006;2023-03-26T12:42:52;98226.72;;;9.43;79.75
66430;BME280;53242;51.694;10.006;2023-03-26T12:45:19;98233.56;;;9.69;79.19
66430;BME280;53242;51.694;10.006;2023-03-26T12:47:43;98229.53;;;9.66;79.90
66430;BME280;53242;51.694;10.006;2023-03-26T12:50:11;98221.34;;;9.56;80.63
66430;BME280;53242;51.694;10.006;2023-03-26T12:52:53;98225.47;;;9.45;80.42
66430;BME280;53242;51.694;10.006;2023-03-26T12:55:34;98219.13;;;9.34;80.13
66430;BME280;53242;51.694;10.006;2023-03-26T12:58:14;98227.03;;;9.53;80.35
66430;BME280;53242;51.694;10.006;2023-03-26T13:03:29;98217.50;;;9.33;80.46
66430;BME280;53242;51.694;10.006;2023-03-26T13:06:14;98225.06;;;9.48;80.55
66430;BME280;53242;51.694;10.006;2023-03-26T13:17:20;98212.91;;;9.47;80.51
66430;BME280;53242;51.694;10.006;2023-03-26T13:19:51;98212.53;;;9.44;80.69
66430;BME280;53242;51.694;10.006;2023-03-26T13:36:16;98196.75;;;9.62;79.43
66430;BME280;53242;51.694;10.006;2023-03-26T13:39:08;98201.72;;;9.70;79.18
66430;BME280;53242;51.694;10.006;2023-03-26T13:41:48;98196.06;;;9.67;79.11
66430;BME280;53242;51.694;10.006;2023-03-26T13:47:18;98188.59;;;9.82;78.92
66430;BME280;53242;51.694;10.006;2023-03-26T13:49:50;98188.19;;;9.67;79.55
66430;BME280;53242;51.694;10.006;2023-03-26T13:52:46;98193.44;;;9.67;79.72
66430;BME280;53242;51.694;10.006;2023-03-26T13:55:18;98183.63;;;9.55;80.63
66430;BME280;53242;51.694;10.006;2023-03-26T13:57:47;98188.72;;;9.57;80.73
66430;BME280;53242;51.694;10.006;2023-03-26T14:00:14;98186.78;;;9.64;80.93
66430;BME280;53242;51.694;10.006;2023-03-26T14:02:41;98182.69;;;9.68;80.23
66430;BME280;53242;51.694;10.006;2023-03-26T14:05:24;98183.44;;;9.57;79.62
66430;BME280;53242;51.694;10.006;2023-03-26T14:10:53;98174.63;;;9.82;78.81
66430;BME280;53242;51.694;10.006;2023-03-26T14:15:53;98181.28;;;9.66;77.33
66430;BME280;53242;51.694;10.006;2023-03-26T14:23:51;98177.63;;;9.85;77.79
66430;BME280;53242;51.694;10.006;2023-03-26T14:31:32;98172.97;;;9.99;76.92
66430;BME280;53242;51.694;10.006;2023-03-26T14:34:21;98174.59;;;10.00;76.65
66430;BME280;53242;51.694;10.006;2023-03-26T14:39:39;98167.38;;;9.96;77.25
66430;BME280;53242;51.694;10.006;2023-03-26T14:45:22;98166.13;;;9.98;75.92
66430;BME280;53242;51.694;10.006;2023-03-26T14:53:15;98159.47;;;9.96;75.54
66430;BME280;53242;51.694;10.006;2023-03-26T15:06:46;98157.53;;;10.03;76.05
66430;BME280;53242;51.694;10.006;2023-03-26T15:12:47;98150.59;;;9.90;76.31
66430;BME280;53242;51.694;10.006;2023-03-26T15:20:54;98157.03;;;9.94;76.12
66430;BME280;53242;51.694;10.006;2023-03-26T15:35:02;98158.59;;;8.91;77.97
66430;BME280;53242;51.694;10.006;2023-03-26T15:40:28;98160.03;;;8.61;79.11
66430;BME280;53242;51.694;10.006;2023-03-26T15:43:11;98159.25;;;8.61;78.79
66430;BME280;53242;51.694;10.006;2023-03-26T15:45:41;98163.44;;;8.68;78.07
66430;BME280;53242;51.694;10.006;2023-03-26T15:51:14;98166.06;;;8.68;78.93
66430;BME280;53242;51.694;10.006;2023-03-26T15:56:38;98156.06;;;8.52;79.49
66430;BME280;53242;51.694;10.006;2023-03-26T15:59:16;98157.03;;;8.58;79.18
66430;BME280;53242;51.694;10.006;2023-03-26T16:04:43;98157.16;;;8.69;79.77
66430;BME280;53242;51.694;10.006;2023-03-26T16:15:38;98166.44;;;8.40;80.05
66430;BME280;53242;51.694;10.006;2023-03-26T16:18:14;98163.50;;;8.55;80.32
66430;BME280;53242;51.694;10.006;2023-03-26T16:21:03;98171.41;;;8.55;80.42
66430;BME280;53242;51.694;10.006;2023-03-26T16:26:17;98167.72;;;8.63;80.43
66430;BME280;53242;51.694;10.006;2023-03-26T16:33:37;98172.22;;;8.23;81.36
66430;BME280;53242;51.694;10.006;2023-03-26T16:41:28;98171.75;;;8.33;81.13
66430;BME280;53242;51.694;10.006;2023-03-26T16:46:43;98178.34;;;8.43;81.59
66430;BME280;53242;51.694;10.006;2023-03-26T16:52:03;98178.13;;;8.44;82.48
66430;BME280;53242;51.694;10.006;2023-03-26T16:54:56;98187.94;;;8.62;82.29
66430;BME280;53242;51.694;10.006;2023-03-26T16:57:28;98187.00;;;8.50;82.30
66430;BME280;53242;51.694;10.006;2023-03-26T17:00:04;98192.44;;;8.23;83.01
66430;BME280;53242;51.694;10.006;2023-03-26T17:05:43;98194.56;;;8.46;81.89
66430;BME280;53242;51.694;10.006;2023-03-26T17:08:31;98194.84;;;8.63;81.68
66430;BME280;53242;51.694;10.006;2023-03-26T17:11:13;98189.88;;;8.48;81.77
66430;BME280;53242;51.694;10.006;2023-03-26T17:16:23;98205.94;;;8.27;81.73
66430;BME280;53242;51.694;10.006;2023-03-26T17:19:09;98214.38;;;8.35;81.77
66430;BME280;53242;51.694;10.006;2023-03-26T17:22:11;98205.22;;;8.45;82.29
66430;BME280;53242;51.694;10.006;2023-03-26T17:27:46;98211.06;;;8.53;81.78
66430;BME280;53242;51.694;10.006;2023-03-26T17:30:44;98223.69;;;8.38;82.29
66430;BME280;53242;51.694;10.006;2023-03-26T17:33:25;98223.84;;;8.43;81.94
66430;BME280;53242;51.694;10.006;2023-03-26T17:35:50;98230.34;;;8.40;81.90
66430;BME280;53242;51.694;10.006;2023-03-26T17:40:52;98239.53;;;8.25;82.38
66430;BME280;53242;51.694;10.006;2023-03-26T17:43:44;98235.00;;;8.38;82.73